sensor_id;sensor_type;location;lat;lon;timestamp;pressure;altitude;pressure_sealevel;temperature;humidity
72959;BME280;60008;50.826;6.896;2022-11-11T00:02:41;102381.22;;;6.77;100.00
72959;BME280;60008;50.826;6.896;2022-11-11T00:05:26;102378.41;;;6.80;100.00
72959;BME280;60008;50.826;6.896;2022-11-11T00:08:11;102372.75;;;6.86;100.00
72959;BME280;60008;50.826;6.896;2022-11-11T00:11:06;102366.25;;;6.91;100.00
72959;BME280;60008;50.826;6.896;2022-11-11T00:13:52;102363.53;;;6.93;100.00
72959;BME280;60008;50.826;6.896;2022-11-11T00:16:38;102356.56;;;6.92;100.00
72959;BME280;60008;50.826;6.896;2022-11-11T00:19:41;102350.34;;;6.93;100.00
72959;BME280;60008;50.826;6.896;2022-11-11T00:22:45;102365.03;;;6.83;100.00
72959;BME280;60008;50.826;6.896;2022-11-11T00:25:52;102361.00;;;6.77;100.00
72959;BME280;60008;50.826;6.896;2022-11-11T00:28:57;102361.47;;;6.70;100.00
72959;BME280;60008;50.826;6.896;2022-11-11T00:31:42;102362.34;;;6.70;100.00
72959;BME280;60008;50.826;6.896;2022-11-11T00:34:45;102367.41;;;6.59;100.00
72959;BME280;60008;50.826;6.896;2022-11-11T00:37:50;102368.09;;;6.63;100.00
72959;BME280;60008;50.826;6.896;2022-11-11T00:40:35;102372.03;;;6.70;100.00
72959;BME280;60008;50.826;6.896;2022-11-11T00:43:20;102370.22;;;6.70;100.00
72959;BME280;60008;50.826;6.896;2022-11-11T00:46:05;102382.09;;;6.63;100.00
72959;BME280;60008;50.826;6.896;2022-11-11T00:49:09;102394.13;;;6.53;100.00
72959;BME280;60008;50.826;6.896;2022-11-11T00:52:13;102401.00;;;6.55;100.00
72959;BME280;60008;50.826;6.896;2022-11-11T00:54:58;102414.28;;;6.54;100.00
72959;BME280;60008;50.826;6.896;2022-11-11T00:57:43;102410.03;;;6.51;100.00
72959;BME280;60008;50.826;6.896;2022-11-11T01:00:29;102407.28;;;6.53;100.00
72959;BME280;60008;50.826;6.896;2022-11-11T01:03:15;102395.63;;;6.43;100.00
72959;BME280;60008;50.826;6.896;2022-11-11T01:06:01;102397.59;;;6.39;100.00
72959;BME280;60008;50.826;6.896;2022-11-11T01:08:46;102393.75;;;6.45;100.00
72959;BME280;60008;50.826;6.896;2022-11-11T01:11:32;102391.78;;;6.48;100.00
72959;BME280;60008;50.826;6.896;2022-11-11T01:14:17;102383.97;;;6.47;100.00
72959;BME280;60008;50.826;6.896;2022-11-11T01:17:02;102382.66;;;6.40;100.00
72959;BME280;60008;50.826;6.896;2022-11-11T01:19:48;102388.22;;;6.35;100.00
72959;BME280;60008;50.826;6.896;2022-11-11T01:22:33;102396.00;;;6.37;100.00
72959;BME280;60008;50.826;6.896;2022-11-11T01:25:18;102401.47;;;6.48;100.00
72959;BME280;60008;50.826;6.896;2022-11-11T01:28:04;102403.06;;;6.50;100.00
72959;BME280;60008;50.826;6.896;2022-11-11T01:30:49;102399.97;;;6.44;100.00
72959;BME280;60008;50.826;6.896;2022-11-11T01:33:35;102402.78;;;6.41;100.00
72959;BME280;60008;50.826;6.896;2022-11-11T01:36:22;102404.88;;;6.36;100.00
72959;BME280;60008;50.826;6.896;2022-11-11T01:39:08;102420.16;;;6.29;100.00
72959;BME280;60008;50.826;6.896;2022-11-11T01:41:53;102411.88;;;6.21;100.00
72959;BME280;60008;50.826;6.896;2022-11-11T01:44:46;102414.81;;;6.17;100.00
72959;BME280;60008;50.826;6.896;2022-11-11T01:47:32;102410.28;;;6.19;100.00
72959;BME280;60008;50.826;6.896;2022-11-11T01:50:57;102415.44;;;6.20;100.00
72959;BME280;60008;50.826;6.896;2022-11-11T01:53:43;102423.34;;;6.20;100.00
72959;BME280;60008;50.826;6.896;2022-11-11T01:56:29;102416.28;;;6.21;100.00
72959;BME280;60008;50.826;6.896;2022-11-11T01:59:16;102416.28;;;6.21;100.00
72959;BME280;60008;50.826;6.896;2022-11-11T02:02:06;102420.16;;;6.29;100.00
72959;BME280;60008;50.826;6.896;2022-11-11T02:04:54;102411.69;;;6.24;100.00
72959;BME280;60008;50.826;6.896;2022-11-11T02:08:01;102411.16;;;6.04;100.00
72959;BME280;60008;50.826;6.896;2022-11-11T02:10:46;102412.03;;;6.04;100.00
72959;BME280;60008;50.826;6.896;2022-11-11T02:13:32;102413.72;;;6.05;100.00
72959;BME280;60008;50.826;6.896;2022-11-11T02:16:36;102413.16;;;6.00;100.00
72959;BME280;60008;50.826;6.896;2022-11-11T02:19:31;102414.75;;;6.03;100.00
72959;BME280;60008;50.826;6.896;2022-11-11T02:22:24;102415.41;;;5.92;100.00
72959;BME280;60008;50.826;6.896;2022-11-11T02:25:16;102418.94;;;5.91;100.00
72959;BME280;60008;50.826;6.896;2022-11-11T02:28:04;102404.00;;;5.91;100.00
72959;BME280;60008;50.826;6.896;2022-11-11T02:30:50;102407.00;;;5.85;100.00
72959;BME280;60008;50.826;6.896;2022-11-11T02:33:35;102410.38;;;5.87;100.00
72959;BME280;60008;50.826;6.896;2022-11-11T02:36:21;102414.34;;;5.79;100.00
72959;BME280;60008;50.826;6.896;2022-11-11T02:39:07;102422.78;;;5.70;100.00
72959;BME280;60008;50.826;6.896;2022-11-11T02:41:52;102417.09;;;5.77;100.00
72959;BME280;60008;50.826;6.896;2022-11-11T02:44:43;102413.16;;;5.84;100.00
72959;BME280;60008;50.826;6.896;2022-11-11T02:47:28;102412.19;;;5.87;100.00
72959;BME280;60008;50.826;6.896;2022-11-11T02:50:13;102410.19;;;5.90;100.00
72959;BME280;60008;50.826;6.896;2022-11-11T02:52:58;102408.00;;;5.83;100.00
72959;BME280;60008;50.826;6.896;2022-11-11T02:55:44;102410.78;;;5.80;100.00
72959;BME280;60008;50.826;6.896;2022-11-11T02:58:29;102406.66;;;5.76;100.00
72959;BME280;60008;50.826;6.896;2022-11-11T03:01:14;102405.25;;;5.70;100.00
72959;BME280;60008;50.826;6.896;2022-11-11T03:04:04;102399.28;;;5.67;100.00
72959;BME280;60008;50.826;6.896;2022-11-11T03:06:49;102394.22;;;5.64;100.00
72959;BME280;60008;50.826;6.896;2022-11-11T03:09:34;102395.22;;;5.61;100.00
72959;BME280;60008;50.826;6.896;2022-11-11T03:12:20;102405.31;;;5.69;100.00
72959;BME280;60008;50.826;6.896;2022-11-11T03:15:05;102404.09;;;5.74;100.00
72959;BME280;60008;50.826;6.896;2022-11-11T03:17:51;102405.81;;;5.75;100.00
72959;BME280;60008;50.826;6.896;2022-11-11T03:20:36;102400.72;;;5.72;100.00
72959;BME280;60008;50.826;6.896;2022-11-11T03:24:20;102413.38;;;5.66;100.00
72959;BME280;60008;50.826;6.896;2022-11-11T03:27:05;102416.09;;;5.64;100.00
72959;BME280;60008;50.826;6.896;2022-11-11T03:29:50;102425.50;;;5.68;100.00
72959;BME280;60008;50.826;6.896;2022-11-11T03:32:35;102429.25;;;5.64;100.00
72959;BME280;60008;50.826;6.896;2022-11-11T03:35:20;102419.19;;;5.57;100.00
72959;BME280;60008;50.826;6.896;2022-11-11T03:38:06;102422.56;;;5.59;100.00
72959;BME280;60008;50.826;6.896;2022-11-11T03:41:08;102413.97;;;5.55;100.00
72959;BME280;60008;50.826;6.896;2022-11-11T03:43:53;102421.72;;;5.43;100.00
72959;BME280;60008;50.826;6.896;2022-11-11T03:46:38;102413.16;;;5.39;100.00
72959;BME280;60008;50.826;6.896;2022-11-11T03:49:23;102419.84;;;5.45;100.00
72959;BME280;60008;50.826;6.896;2022-11-11T03:52:08;102420.13;;;5.40;100.00
72959;BME280;60008;50.826;6.896;2022-11-11T03:54:53;102419.28;;;5.39;100.00
72959;BME280;60008;50.826;6.896;2022-11-11T03:57:42;102419.38;;;5.38;100.00
72959;BME280;60008;50.826;6.896;2022-11-11T04:00:29;102416.13;;;5.33;100.00
72959;BME280;60008;50.826;6.896;2022-11-11T04:03:18;102416.50;;;5.27;100.00
72959;BME280;60008;50.826;6.896;2022-11-11T04:06:22;102420.13;;;5.24;100.00
72959;BME280;60008;50.826;6.896;2022-11-11T04:09:26;102420.63;;;5.15;100.00
72959;BME280;60008;50.826;6.896;2022-11-11T04:12:30;102430.03;;;5.04;100.00
72959;BME280;60008;50.826;6.896;2022-11-11T04:15:37;102423.91;;;5.03;100.00
72959;BME280;60008;50.826;6.896;2022-11-11T04:18:41;102421.28;;;5.03;100.00
72959;BME280;60008;50.826;6.896;2022-11-11T04:21:44;102426.38;;;5.06;100.00
72959;BME280;60008;50.826;6.896;2022-11-11T04:24:30;102432.59;;;5.05;100.00
72959;BME280;60008;50.826;6.896;2022-11-11T04:27:34;102421.13;;;5.06;100.00
72959;BME280;60008;50.826;6.896;2022-11-11T04:30:19;102423.16;;;5.01;100.00
72959;BME280;60008;50.826;6.896;2022-11-11T04:33:04;102422.75;;;5.09;100.00
72959;BME280;60008;50.826;6.896;2022-11-11T04:35:49;102412.16;;;5.10;100.00
72959;BME280;60008;50.826;6.896;2022-11-11T04:38:34;102408.94;;;5.05;100.00
72959;BME280;60008;50.826;6.896;2022-11-11T04:41:38;102402.84;;;5.05;100.00
72959;BME280;60008;50.826;6.896;2022-11-11T04:44:43;102403.25;;;4.97;100.00
72959;BME280;60008;50.826;6.896;2022-11-11T04:48:01;102413.78;;;4.97;100.00
72959;BME280;60008;50.826;6.896;2022-11-11T04:50:46;102411.56;;;5.05;100.00
72959;BME280;60008;50.826;6.896;2022-11-11T04:53:32;102418.44;;;5.08;100.00
72959;BME280;60008;50.826;6.896;2022-11-11T04:56:17;102422.34;;;5.16;100.00
72959;BME280;60008;50.826;6.896;2022-11-11T04:59:20;102422.50;;;5.13;100.00
72959;BME280;60008;50.826;6.896;2022-11-11T05:02:06;102422.75;;;5.09;100.00
72959;BME280;60008;50.826;6.896;2022-11-11T05:05:10;102430.13;;;5.02;100.00
72959;BME280;60008;50.826;6.896;2022-11-11T05:07:55;102429.44;;;4.99;100.00
72959;BME280;60008;50.826;6.896;2022-11-11T05:10:59;102428.50;;;5.00;100.00
72959;BME280;60008;50.826;6.896;2022-11-11T05:13:44;102428.41;;;5.01;100.00
72959;BME280;60008;50.826;6.896;2022-11-11T05:16:55;102421.88;;;5.08;100.00
72959;BME280;60008;50.826;6.896;2022-11-11T05:19:59;102422.47;;;4.98;100.00
72959;BME280;60008;50.826;6.896;2022-11-11T05:23:03;102435.09;;;4.91;100.00
72959;BME280;60008;50.826;6.896;2022-11-11T05:25:48;102442.41;;;5.02;100.00
72959;BME280;60008;50.826;6.896;2022-11-11T05:28:33;102438.06;;;5.01;100.00
72959;BME280;60008;50.826;6.896;2022-11-11T05:31:18;102434.53;;;5.02;100.00
72959;BME280;60008;50.826;6.896;2022-11-11T05:34:03;102420.28;;;5.06;100.00
72959;BME280;60008;50.826;6.896;2022-11-11T05:36:48;102423.91;;;5.03;100.00
72959;BME280;60008;50.826;6.896;2022-11-11T05:39:33;102430.53;;;4.95;100.00
72959;BME280;60008;50.826;6.896;2022-11-11T05:42:18;102422.91;;;4.90;100.00
72959;BME280;60008;50.826;6.896;2022-11-11T05:45:04;102423.31;;;4.98;100.00
72959;BME280;60008;50.826;6.896;2022-11-11T05:47:49;102425.19;;;4.96;100.00
72959;BME280;60008;50.826;6.896;2022-11-11T05:50:34;102431.38;;;4.95;100.00
72959;BME280;60008;50.826;6.896;2022-11-11T05:53:21;102432.81;;;5.01;100.00
72959;BME280;60008;50.826;6.896;2022-11-11T05:56:08;102435.28;;;5.04;100.00
72959;BME280;60008;50.826;6.896;2022-11-11T05:58:53;102434.19;;;5.08;100.00
72959;BME280;60008;50.826;6.896;2022-11-11T06:01:39;102434.03;;;5.11;100.00
72959;BME280;60008;50.826;6.896;2022-11-11T06:04:24;102438.44;;;5.10;100.00
72959;BME280;60008;50.826;6.896;2022-11-11T06:07:09;102449.88;;;5.09;100.00
72959;BME280;60008;50.826;6.896;2022-11-11T06:09:54;102453.84;;;5.01;100.00
72959;BME280;60008;50.826;6.896;2022-11-11T06:12:59;102456.41;;;5.02;100.00
72959;BME280;60008;50.826;6.896;2022-11-11T06:15:55;102458.94;;;5.04;100.00
72959;BME280;60008;50.826;6.896;2022-11-11T06:18:40;102463.59;;;4.99;100.00
72959;BME280;60008;50.826;6.896;2022-11-11T06:21:26;102462.47;;;4.87;100.00
72959;BME280;60008;50.826;6.896;2022-11-11T06:24:11;102466.19;;;4.83;100.00
72959;BME280;60008;50.826;6.896;2022-11-11T06:26:56;102469.41;;;4.88;100.00
72959;BME280;60008;50.826;6.896;2022-11-11T06:29:41;102477.91;;;4.93;100.00
72959;BME280;60008;50.826;6.896;2022-11-11T06:32:27;102475.44;;;4.90;100.00
72959;BME280;60008;50.826;6.896;2022-11-11T06:35:12;102473.91;;;4.86;100.00
72959;BME280;60008;50.826;6.896;2022-11-11T06:37:57;102482.72;;;4.85;100.00
72959;BME280;60008;50.826;6.896;2022-11-11T06:40:42;102490.13;;;4.94;100.00
72959;BME280;60008;50.826;6.896;2022-11-11T06:43:28;102489.59;;;5.03;100.00
72959;BME280;60008;50.826;6.896;2022-11-11T06:46:18;102497.16;;;5.09;100.00
72959;BME280;60008;50.826;6.896;2022-11-11T06:49:05;102496.25;;;5.10;100.00
72959;BME280;60008;50.826;6.896;2022-11-11T06:51:50;102502.00;;;5.17;100.00
72959;BME280;60008;50.826;6.896;2022-11-11T06:54:35;102502.59;;;5.06;100.00
72959;BME280;60008;50.826;6.896;2022-11-11T06:57:23;102506.91;;;5.07;100.00
72959;BME280;60008;50.826;6.896;2022-11-11T07:00:08;102497.94;;;5.11;100.00
72959;BME280;60008;50.826;6.896;2022-11-11T07:02:54;102499.88;;;5.08;100.00
72959;BME280;60008;50.826;6.896;2022-11-11T07:05:40;102512.94;;;5.09;100.00
72959;BME280;60008;50.826;6.896;2022-11-11T07:08:25;102514.47;;;5.13;100.00
72959;BME280;60008;50.826;6.896;2022-11-11T07:11:11;102513.91;;;5.24;100.00
72959;BME280;60008;50.826;6.896;2022-11-11T07:14:02;102508.75;;;5.38;100.00
72959;BME280;60008;50.826;6.896;2022-11-11T07:16:48;102509.66;;;5.37;100.00
72959;BME280;60008;50.826;6.896;2022-11-11T07:19:33;102509.66;;;5.37;100.00
72959;BME280;60008;50.826;6.896;2022-11-11T07:22:18;102509.78;;;5.51;100.00
72959;BME280;60008;50.826;6.896;2022-11-11T07:25:03;102508.75;;;5.54;100.00
72959;BME280;60008;50.826;6.896;2022-11-11T07:27:48;102511.81;;;5.62;100.00
72959;BME280;60008;50.826;6.896;2022-11-11T07:30:38;102524.69;;;5.66;100.00
72959;BME280;60008;50.826;6.896;2022-11-11T07:33:23;102518.41;;;5.69;100.00
72959;BME280;60008;50.826;6.896;2022-11-11T07:36:09;102522.47;;;5.74;100.00
72959;BME280;60008;50.826;6.896;2022-11-11T07:38:54;102515.34;;;5.76;100.00
72959;BME280;60008;50.826;6.896;2022-11-11T07:41:39;102516.03;;;5.80;100.00
72959;BME280;60008;50.826;6.896;2022-11-11T07:44:24;102509.59;;;5.85;100.00
72959;BME280;60008;50.826;6.896;2022-11-11T07:47:09;102515.72;;;5.86;100.00
72959;BME280;60008;50.826;6.896;2022-11-11T07:49:54;102524.03;;;5.94;100.00
72959;BME280;60008;50.826;6.896;2022-11-11T07:52:40;102526.91;;;6.05;100.00
72959;BME280;60008;50.826;6.896;2022-11-11T07:55:25;102527.22;;;6.15;100.00
72959;BME280;60008;50.826;6.896;2022-11-11T07:58:10;102528.75;;;6.19;100.00
72959;BME280;60008;50.826;6.896;2022-11-11T08:00:58;102542.78;;;6.33;100.00
72959;BME280;60008;50.826;6.896;2022-11-11T08:03:49;102535.03;;;6.46;100.00
72959;BME280;60008;50.826;6.896;2022-11-11T08:06:35;102539.66;;;6.56;100.00
72959;BME280;60008;50.826;6.896;2022-11-11T08:09:20;102541.84;;;6.64;100.00
72959;BME280;60008;50.826;6.896;2022-11-11T08:12:05;102549.28;;;6.72;100.00
72959;BME280;60008;50.826;6.896;2022-11-11T08:15:09;102549.50;;;6.83;100.00
72959;BME280;60008;50.826;6.896;2022-11-11T08:17:54;102550.53;;;6.80;100.00
72959;BME280;60008;50.826;6.896;2022-11-11T08:20:39;102555.31;;;6.88;100.00
72959;BME280;60008;50.826;6.896;2022-11-11T08:23:30;102556.38;;;6.99;100.00
72959;BME280;60008;50.826;6.896;2022-11-11T08:26:38;102552.72;;;7.02;100.00
72959;BME280;60008;50.826;6.896;2022-11-11T08:29:24;102566.09;;;7.13;100.00
72959;BME280;60008;50.826;6.896;2022-11-11T08:32:09;102555.38;;;7.16;100.00
72959;BME280;60008;50.826;6.896;2022-11-11T08:34:55;102554.81;;;7.25;100.00
72959;BME280;60008;50.826;6.896;2022-11-11T08:37:40;102550.66;;;7.35;100.00
72959;BME280;60008;50.826;6.896;2022-11-11T08:40:25;102560.53;;;7.46;100.00
72959;BME280;60008;50.826;6.896;2022-11-11T08:43:10;102560.91;;;7.54;100.00
72959;BME280;60008;50.826;6.896;2022-11-11T08:45:56;102556.56;;;7.53;100.00
72959;BME280;60008;50.826;6.896;2022-11-11T08:48:41;102562.22;;;7.61;100.00
72959;BME280;60008;50.826;6.896;2022-11-11T08:51:26;102561.06;;;7.65;100.00
72959;BME280;60008;50.826;6.896;2022-11-11T08:54:20;102565.28;;;7.82;100.00
72959;BME280;60008;50.826;6.896;2022-11-11T08:57:05;102567.69;;;7.99;100.00
72959;BME280;60008;50.826;6.896;2022-11-11T08:59:50;102567.00;;;8.09;100.00
72959;BME280;60008;50.826;6.896;2022-11-11T09:02:36;102565.56;;;8.18;100.00
72959;BME280;60008;50.826;6.896;2022-11-11T09:05:21;102561.19;;;8.31;100.00
72959;BME280;60008;50.826;6.896;2022-11-11T09:08:07;102558.34;;;8.34;100.00
72959;BME280;60008;50.826;6.896;2022-11-11T09:10:52;102562.19;;;8.55;100.00
72959;BME280;60008;50.826;6.896;2022-11-11T09:13:37;102560.81;;;8.62;100.00
72959;BME280;60008;50.826;6.896;2022-11-11T09:16:22;102553.63;;;8.64;100.00
72959;BME280;60008;50.826;6.896;2022-11-11T09:19:07;102551.22;;;8.74;100.00
72959;BME280;60008;50.826;6.896;2022-11-11T09:21:52;102558.53;;;8.83;100.00
72959;BME280;60008;50.826;6.896;2022-11-11T09:24:37;102554.63;;;8.88;100.00
72959;BME280;60008;50.826;6.896;2022-11-11T09:27:22;102552.19;;;8.98;100.00
72959;BME280;60008;50.826;6.896;2022-11-11T09:30:09;102548.59;;;9.12;100.00
72959;BME280;60008;50.826;6.896;2022-11-11T09:33:00;102559.91;;;9.26;100.00
72959;BME280;60008;50.826;6.896;2022-11-11T09:35:45;102558.41;;;9.35;100.00
72959;BME280;60008;50.826;6.896;2022-11-11T09:38:30;102558.72;;;9.43;100.00
72959;BME280;60008;50.826;6.896;2022-11-11T09:41:37;102569.63;;;9.51;100.00
72959;BME280;60008;50.826;6.896;2022-11-11T09:45:02;102562.28;;;9.54;100.00
72959;BME280;60008;50.826;6.896;2022-11-11T09:51:22;102563.44;;;9.99;100.00
72959;BME280;60008;50.826;6.896;2022-11-11T09:54:15;102562.75;;;10.08;100.00
72959;BME280;60008;50.826;6.896;2022-11-11T09:57:16;102559.63;;;10.27;100.00
72959;BME280;60008;50.826;6.896;2022-11-11T10:00:12;102559.09;;;10.22;100.00
72959;BME280;60008;50.826;6.896;2022-11-11T10:03:15;102559.88;;;10.11;100.00
72959;BME280;60008;50.826;6.896;2022-11-11T10:06:13;102551.50;;;10.18;100.00
72959;BME280;60008;50.826;6.896;2022-11-11T10:09:16;102556.47;;;10.22;100.00
72959;BME280;60008;50.826;6.896;2022-11-11T10:12:10;102551.84;;;10.37;100.00
72959;BME280;60008;50.826;6.896;2022-11-11T10:14:58;102555.47;;;10.47;100.00
72959;BME280;60008;50.826;6.896;2022-11-11T10:20:53;102544.97;;;10.80;100.00
72959;BME280;60008;50.826;6.896;2022-11-11T10:23:38;102535.22;;;10.92;100.00
72959;BME280;60008;50.826;6.896;2022-11-11T10:26:40;102542.59;;;10.99;100.00
72959;BME280;60008;50.826;6.896;2022-11-11T10:29:29;102545.13;;;10.90;100.00
72959;BME280;60008;50.826;6.896;2022-11-11T10:32:25;102547.88;;;10.88;100.00
72959;BME280;60008;50.826;6.896;2022-11-11T10:35:18;102544.53;;;11.19;100.00
72959;BME280;60008;50.826;6.896;2022-11-11T10:40:57;102546.44;;;11.73;100.00
72959;BME280;60008;50.826;6.896;2022-11-11T10:43:45;102534.97;;;11.61;100.00
72959;BME280;60008;50.826;6.896;2022-11-11T10:46:38;102539.28;;;12.27;100.00
72959;BME280;60008;50.826;6.896;2022-11-11T10:49:29;102544.69;;;12.05;100.00
72959;BME280;60008;50.826;6.896;2022-11-11T10:52:21;102541.69;;;12.30;100.00
72959;BME280;60008;50.826;6.896;2022-11-11T10:55:19;102535.03;;;12.36;100.00
72959;BME280;60008;50.826;6.896;2022-11-11T10:58:15;102532.94;;;11.76;100.00
72959;BME280;60008;50.826;6.896;2022-11-11T11:01:02;102539.28;;;12.48;100.00
72959;BME280;60008;50.826;6.896;2022-11-11T11:03:57;102534.38;;;12.85;100.00
72959;BME280;60008;50.826;6.896;2022-11-11T11:06:46;102525.66;;;13.03;99.29
72959;BME280;60008;50.826;6.896;2022-11-11T11:09:49;102530.03;;;12.63;100.00
72959;BME280;60008;50.826;6.896;2022-11-11T11:12:54;102523.97;;;12.61;100.00
72959;BME280;60008;50.826;6.896;2022-11-11T11:15:47;102525.44;;;13.16;100.00
72959;BME280;60008;50.826;6.896;2022-11-11T11:18:33;102522.91;;;13.45;95.13
72959;BME280;60008;50.826;6.896;2022-11-11T11:21:25;102522.41;;;13.21;94.59
72959;BME280;60008;50.826;6.896;2022-11-11T11:24:26;102516.94;;;13.71;94.87
72959;BME280;60008;50.826;6.896;2022-11-11T11:27:24;102518.13;;;13.39;93.04
72959;BME280;60008;50.826;6.896;2022-11-11T11:30:16;102519.59;;;12.71;98.18
72959;BME280;60008;50.826;6.896;2022-11-11T11:33:06;102510.34;;;12.96;99.09
72959;BME280;60008;50.826;6.896;2022-11-11T11:35:52;102506.69;;;12.97;98.11
72959;BME280;60008;50.826;6.896;2022-11-11T11:38:42;102511.50;;;13.03;95.89
72959;BME280;60008;50.826;6.896;2022-11-11T11:41:42;102515.19;;;12.61;98.99
72959;BME280;60008;50.826;6.896;2022-11-11T11:44:33;102507.38;;;12.69;98.01
72959;BME280;60008;50.826;6.896;2022-11-11T11:48:05;102503.69;;;12.60;98.51
72959;BME280;60008;50.826;6.896;2022-11-11T11:54:33;102503.47;;;12.93;99.31
72959;BME280;60008;50.826;6.896;2022-11-11T11:57:49;102507.13;;;13.02;99.53
72959;BME280;60008;50.826;6.896;2022-11-11T12:00:45;102499.97;;;12.93;97.53
72959;BME280;60008;50.826;6.896;2022-11-11T12:03:58;102492.59;;;13.06;99.79
72959;BME280;60008;50.826;6.896;2022-11-11T12:07:00;102496.84;;;12.88;97.34
72959;BME280;60008;50.826;6.896;2022-11-11T12:09:57;102502.84;;;13.10;98.22
72959;BME280;60008;50.826;6.896;2022-11-11T12:13:20;102495.25;;;13.06;97.87
72959;BME280;60008;50.826;6.896;2022-11-11T12:16:25;102491.38;;;13.10;96.66
72959;BME280;60008;50.826;6.896;2022-11-11T12:25:54;102472.69;;;13.31;94.06
72959;BME280;60008;50.826;6.896;2022-11-11T12:29:02;102475.13;;;13.62;94.46
72959;BME280;60008;50.826;6.896;2022-11-11T12:35:04;102469.53;;;13.56;93.46
72959;BME280;60008;50.826;6.896;2022-11-11T12:38:05;102477.91;;;13.51;93.00
72959;BME280;60008;50.826;6.896;2022-11-11T12:44:06;102459.44;;;13.79;92.56
72959;BME280;60008;50.826;6.896;2022-11-11T12:47:29;102454.97;;;13.89;91.66
72959;BME280;60008;50.826;6.896;2022-11-11T12:50:29;102457.22;;;13.93;90.96
72959;BME280;60008;50.826;6.896;2022-11-11T12:53:55;102454.53;;;13.93;89.11
72959;BME280;60008;50.826;6.896;2022-11-11T12:56:54;102454.94;;;14.08;90.23
72959;BME280;60008;50.826;6.896;2022-11-11T13:06:20;102449.91;;;14.34;86.31
72959;BME280;60008;50.826;6.896;2022-11-11T13:09:32;102445.78;;;14.29;83.45
72959;BME280;60008;50.826;6.896;2022-11-11T13:12:31;102446.91;;;14.56;82.32
72959;BME280;60008;50.826;6.896;2022-11-11T13:15:24;102449.28;;;14.59;82.96
72959;BME280;60008;50.826;6.896;2022-11-11T13:18:13;102446.41;;;14.79;78.84
72959;BME280;60008;50.826;6.896;2022-11-11T13:21:03;102451.34;;;14.74;80.56
72959;BME280;60008;50.826;6.896;2022-11-11T13:23:49;102451.97;;;14.59;81.55
72959;BME280;60008;50.826;6.896;2022-11-11T13:26:41;102442.25;;;14.67;80.31
72959;BME280;60008;50.826;6.896;2022-11-11T13:32:44;102442.66;;;14.72;82.27
72959;BME280;60008;50.826;6.896;2022-11-11T13:35:37;102440.84;;;14.73;81.31
72959;BME280;60008;50.826;6.896;2022-11-11T13:38:28;102433.50;;;14.75;80.66
72959;BME280;60008;50.826;6.896;2022-11-11T13:41:23;102439.34;;;14.88;81.71
72959;BME280;60008;50.826;6.896;2022-11-11T13:44:20;102438.44;;;14.70;81.49
72959;BME280;60008;50.826;6.896;2022-11-11T13:47:13;102442.72;;;14.53;82.06
72959;BME280;60008;50.826;6.896;2022-11-11T13:50:06;102435.50;;;14.63;81.19
72959;BME280;60008;50.826;6.896;2022-11-11T13:53:23;102435.22;;;14.66;81.49
72959;BME280;60008;50.826;6.896;2022-11-11T13:56:10;102440.16;;;14.52;80.34
72959;BME280;60008;50.826;6.896;2022-11-11T13:58:56;102442.00;;;14.51;80.36
72959;BME280;60008;50.826;6.896;2022-11-11T14:01:42;102434.94;;;14.60;82.68
72959;BME280;60008;50.826;6.896;2022-11-11T14:04:27;102434.38;;;14.66;83.79
72959;BME280;60008;50.826;6.896;2022-11-11T14:16:08;102429.97;;;14.18;86.48
72959;BME280;60008;50.826;6.896;2022-11-11T14:18:54;102429.66;;;14.21;85.54
72959;BME280;60008;50.826;6.896;2022-11-11T14:21:45;102440.22;;;14.23;85.97
72959;BME280;60008;50.826;6.896;2022-11-11T14:24:39;102428.00;;;14.20;85.69
72959;BME280;60008;50.826;6.896;2022-11-11T14:27:28;102429.28;;;14.07;86.07
72959;BME280;60008;50.826;6.896;2022-11-11T14:30:46;102433.19;;;14.03;86.24
72959;BME280;60008;50.826;6.896;2022-11-11T14:36:47;102424.66;;;13.99;84.39
72959;BME280;60008;50.826;6.896;2022-11-11T14:39:41;102437.56;;;14.04;84.46
72959;BME280;60008;50.826;6.896;2022-11-11T14:42:41;102436.00;;;13.92;85.82
72959;BME280;60008;50.826;6.896;2022-11-11T14:51:45;102443.03;;;13.64;86.71
72959;BME280;60008;50.826;6.896;2022-11-11T14:54:46;102445.53;;;13.56;87.65
72959;BME280;60008;50.826;6.896;2022-11-11T14:57:39;102437.38;;;13.38;89.80
72959;BME280;60008;50.826;6.896;2022-11-11T15:00:46;102436.19;;;13.12;93.25
72959;BME280;60008;50.826;6.896;2022-11-11T15:03:52;102454.75;;;13.02;94.36
72959;BME280;60008;50.826;6.896;2022-11-11T15:06:43;102443.06;;;12.94;95.19
72959;BME280;60008;50.826;6.896;2022-11-11T15:09:48;102443.91;;;12.94;95.02
72959;BME280;60008;50.826;6.896;2022-11-11T15:13:04;102451.56;;;12.78;96.36
72959;BME280;60008;50.826;6.896;2022-11-11T15:25:33;102437.31;;;11.97;100.00
72959;BME280;60008;50.826;6.896;2022-11-11T15:31:39;102434.91;;;11.62;100.00
72959;BME280;60008;50.826;6.896;2022-11-11T15:34:43;102432.59;;;11.79;100.00
72959;BME280;60008;50.826;6.896;2022-11-11T15:37:30;102434.41;;;11.79;100.00
72959;BME280;60008;50.826;6.896;2022-11-11T15:43:53;102438.03;;;11.56;100.00
72959;BME280;60008;50.826;6.896;2022-11-11T15:46:40;102441.34;;;11.37;100.00
72959;BME280;60008;50.826;6.896;2022-11-11T15:49:43;102450.56;;;11.11;100.00
72959;BME280;60008;50.826;6.896;2022-11-11T15:52:31;102450.56;;;10.89;100.00
72959;BME280;60008;50.826;6.896;2022-11-11T15:55:22;102446.22;;;10.76;100.00
72959;BME280;60008;50.826;6.896;2022-11-11T15:58:30;102447.78;;;11.12;100.00
72959;BME280;60008;50.826;6.896;2022-11-11T16:01:14;102446.34;;;11.08;100.00
72959;BME280;60008;50.826;6.896;2022-11-11T16:04:00;102455.16;;;10.98;100.00
72959;BME280;60008;50.826;6.896;2022-11-11T16:06:46;102456.59;;;10.80;100.00